Airfield :
LOGIN :

Register | Disclaimer

   EN    FR    IT 

 










Legend :    VFR   Marginal VFR   IFR   Intensive IFR   Very Intensive IFR
Visi :
Ceiling :
>= 8 km
>= 3000ft
5 to 8 km
1000 to 3000 ft
1500m to 5 km
500 to 1000 ft
800 to 1500m
200 to 500 ft
< 800m
< 200 ft
Symbols :   Thunderstorms  Fog  Heavy snow  Heavy precipitations  Wind > 20 kt
SIGMETs :     Misc.  Thunderstorms  Icing  Turbulence  Mountain Waves  Volcanic Ashes






- Airport Elevation : 126 ft
- IATA code : WIC


EGPC - Wick

CURRENT METAR :
  • 251050Z AUTO 20009KT 9999 NCD 07/05 Q1004

EXPIRED METARs :
  • 251020Z AUTO 20010KT 9999 NCD 07/05 Q1004
  • 250950Z AUTO 20011KT 9999 NCD 07/05 Q1004
  • 250920Z AUTO 20011KT 9999 NCD 07/05 Q1004
  • 250850Z AUTO 20011KT 9999 NCD 07/05 Q1004
  • 250820Z AUTO 21012KT 9999 NCD 07/05 Q1004
  • 250750Z AUTO 20008KT 170V240 9999 NCD 07/05 Q1004

TAF TAF EGPC
Valid from the 25 at 09:00 until the 25 at 18:00 UTC


250755Z 2509/2518 20009KT 9999 FEW016 SCT035
PROB40
TEMPO 2509/2518 22015G25KT
ATIS : +44 1955 607 596



MET'MAP, your aeronautical weather chart ! - Copyright ORBIFLY December 2007 - Disclaimer

ORBIFLY MET'MAP TEAM :

Programming & Development : Alexandra Zaïnal
Concept & original design : Baudouin d'Aumeries
Assistance for programming : Marc-Olivier Méhu
Technical & hardware support : Manuel Goepfert

Contact : metmap@orbifly.com




SOURCES & CREDITS :

   NOAA